Time;durP1;ratioP1;P1;durP2;ratioP2;P2;SDS_P1;SDS_P2;PMS_P1;PMS_P2;Temp;Humidity;BMP_temperature;BMP_pressure;BME280_temperature;BME280_humidity;BME280_pressure;Samples;Min_cycle;Max_cycle;Signal;HPM_P1;HPM_P2
2021/01/06 00:04:04;;;;;;;5.43;2.10;;;18.40;53.70;;;;;;10205339;29;20070;-60
2021/01/06 00:09:06;;;;;;;5.22;2.13;;;18.40;53.80;;;;;;10203533;29;20059;-59
2021/01/06 00:14:14;;;;;;;4.22;2.05;;;18.40;53.80;;;;;;10204535;29;20055;-59
2021/01/06 00:19:15;;;;;;;5.88;2.42;;;18.40;53.70;;;;;;10202914;29;20048;-60
2021/01/06 00:24:16;;;;;;;5.20;2.03;;;18.40;53.70;;;;;;10203974;29;20227;-59
2021/01/06 00:29:19;;;;;;;3.47;1.80;;;18.40;53.70;;;;;;10203253;29;20052;-59
2021/01/06 00:34:20;;;;;;;2.30;1.73;;;18.30;53.70;;;;;;10205171;29;20138;-59
2021/01/06 00:39:21;;;;;;;7.78;2.40;;;18.40;53.70;;;;;;10204154;29;20087;-59
2021/01/06 00:44:23;;;;;;;3.97;2.22;;;18.30;53.70;;;;;;10206564;29;20062;-60
2021/01/06 00:49:24;;;;;;;3.22;1.70;;;18.30;53.70;;;;;;10202549;29;20106;-60
2021/01/06 00:54:26;;;;;;;2.60;1.75;;;18.30;53.80;;;;;;10204198;29;20159;-60
2021/01/06 00:59:28;;;;;;;5.95;1.60;;;18.30;53.80;;;;;;10203334;29;20106;-60
2021/01/06 01:04:29;;;;;;;2.72;1.83;;;18.30;53.80;;;;;;10204253;29;20087;-59
2021/01/06 01:09:30;;;;;;;2.85;1.75;;;18.30;53.80;;;;;;10201757;29;20060;-58
2021/01/06 01:14:32;;;;;;;2.60;1.70;;;18.30;53.80;;;;;;10199780;29;20057;-59
2021/01/06 01:19:34;;;;;;;2.00;1.58;;;18.20;53.80;;;;;;10202000;29;20066;-60
2021/01/06 01:24:35;;;;;;;2.28;1.85;;;18.20;53.80;;;;;;10202651;29;20052;-60
2021/01/06 01:29:37;;;;;;;5.28;2.08;;;18.20;53.80;;;;;;10210529;29;20103;-60
2021/01/06 01:34:38;;;;;;;3.17;1.70;;;18.20;53.80;;;;;;10211032;29;20052;-60
2021/01/06 01:39:40;;;;;;;2.08;1.58;;;18.20;53.80;;;;;;10210806;29;20064;-60
2021/01/06 01:44:58;;;;;;;2.67;1.33;;;18.20;53.90;;;;;;10212847;29;20135;-59
2021/01/06 01:50:00;;;;;;;4.25;1.23;;;18.20;53.90;;;;;;10211996;29;20526;-60
2021/01/06 01:55:04;;;;;;;2.05;1.40;;;18.20;53.90;;;;;;10212352;29;20047;-60
2021/01/06 02:00:10;;;;;;;3.47;1.40;;;18.10;53.90;;;;;;10209916;29;20487;-60
2021/01/06 02:05:14;;;;;;;2.53;1.40;;;18.10;53.90;;;;;;10204460;29;20064;-60
2021/01/06 02:10:20;;;;;;;2.15;1.40;;;18.10;53.90;;;;;;10210169;29;20047;-60
2021/01/06 02:15:32;;;;;;;2.47;1.58;;;18.10;53.90;;;;;;10210494;29;20054;-59
2021/01/06 02:20:33;;;;;;;4.45;1.80;;;18.10;53.90;;;;;;10209670;29;20051;-60
2021/01/06 02:25:39;;;;;;;2.65;1.30;;;18.10;53.90;;;;;;10210127;29;20146;-60
2021/01/06 02:30:41;;;;;;;2.10;1.40;;;18.10;53.90;;;;;;10212244;29;20054;-60
2021/01/06 02:35:42;;;;;;;2.22;1.45;;;18.10;53.90;;;;;;10205360;29;20058;-59
2021/01/06 02:40:45;;;;;;;2.22;1.40;;;18.10;53.90;;;;;;10207412;29;20051;-60
2021/01/06 02:45:46;;;;;;;;;;;18.10;54.00;;;;;;10207121;29;20502;-59
2021/01/06 02:50:51;;;;;;;2.72;1.35;;;18.00;54.00;;;;;;10211936;29;20292;-60
2021/01/06 02:55:54;;;;;;;1.80;1.20;;;18.00;54.00;;;;;;10209956;29;20127;-59
2021/01/06 03:00:55;;;;;;;6.82;1.35;;;18.00;53.90;;;;;;10208664;29;20162;-59
2021/01/06 03:06:06;;;;;;;1.60;1.25;;;18.00;53.90;;;;;;10209990;29;20146;-59
2021/01/06 03:11:09;;;;;;;1.92;1.05;;;18.00;53.90;;;;;;10211830;29;20052;-59
2021/01/06 03:16:11;;;;;;;1.92;1.30;;;18.00;53.90;;;;;;10209191;29;20385;-60
2021/01/06 03:21:13;;;;;;;2.67;1.10;;;18.00;54.00;;;;;;10211160;29;20134;-59
2021/01/06 03:26:18;;;;;;;2.17;1.02;;;18.00;53.90;;;;;;10210106;29;20058;-60
2021/01/06 03:31:27;;;;;;;1.67;1.15;;;18.00;53.90;;;;;;10209485;29;20138;-60
2021/01/06 03:36:36;;;;;;;1.13;1.02;;;18.00;53.90;;;;;;10210156;29;20533;-59
2021/01/06 03:41:39;;;;;;;1.33;1.00;;;18.00;53.90;;;;;;10209085;29;20043;-60
2021/01/06 03:46:46;;;;;;;0.90;0.90;;;18.00;54.00;;;;;;10208223;29;20051;-60
2021/01/06 03:51:56;;;;;;;3.22;1.10;;;17.90;53.90;;;;;;10208210;29;20195;-60
2021/01/06 03:57:00;;;;;;;2.03;1.20;;;17.90;53.90;;;;;;10209525;29;20045;-60
2021/01/06 04:02:09;;;;;;;1.58;0.95;;;17.90;54.50;;;;;;10204088;29;20051;-59
2021/01/06 04:07:17;;;;;;;1.10;1.00;;;17.90;54.00;;;;;;10208178;29;20142;-60
2021/01/06 04:12:20;;;;;;;4.18;0.85;;;17.90;54.00;;;;;;10207277;29;20062;-59
2021/01/06 04:17:26;;;;;;;3.17;0.85;;;17.90;54.00;;;;;;10208981;29;20377;-60
2021/01/06 04:22:43;;;;;;;3.15;1.10;;;17.90;54.00;;;;;;10206427;29;20472;-60
2021/01/06 04:27:46;;;;;;;1.33;1.00;;;17.90;53.90;;;;;;10207645;29;20150;-59
2021/01/06 04:32:48;;;;;;;0.90;0.90;;;17.90;54.00;;;;;;10205921;29;20055;-60
2021/01/06 04:37:49;;;;;;;4.10;1.00;;;17.90;54.00;;;;;;10207620;29;20623;-61
2021/01/06 04:42:51;;;;;;;1.13;0.90;;;17.90;54.00;;;;;;10205859;29;20146;-60
2021/01/06 04:48:26;;;;;;;1.40;0.88;;;17.90;53.90;;;;;;10206697;29;20134;-60
2021/01/06 04:53:41;;;;;;;1.10;0.80;;;17.90;53.90;;;;;;10207091;29;20142;-60
2021/01/06 04:58:53;;;;;;;0.80;0.70;;;17.80;53.90;;;;;;10204612;29;20369;-60
2021/01/06 05:04:05;;;;;;;1.55;1.00;;;17.80;53.90;;;;;;10202527;29;20044;-60
2021/01/06 05:09:17;;;;;;;0.95;0.70;;;17.80;53.90;;;;;;10201191;29;20066;-60
2021/01/06 05:14:23;;;;;;;2.67;1.08;;;17.80;53.90;;;;;;10204710;29;20492;-60
2021/01/06 05:19:29;;;;;;;1.10;1.00;;;17.80;53.90;;;;;;10202036;29;20147;-60
2021/01/06 05:24:34;;;;;;;1.30;0.70;;;17.80;53.90;;;;;;10207114;29;20431;-60
2021/01/06 05:29:36;;;;;;;1.35;0.60;;;17.80;53.90;;;;;;10203870;29;20541;-60
2021/01/06 05:34:37;;;;;;;1.15;0.80;;;17.80;53.90;;;;;;10206568;29;20078;-60
2021/01/06 05:39:39;;;;;;;1.88;1.00;;;17.80;53.90;;;;;;10203195;29;20070;-60
2021/01/06 05:44:41;;;;;;;2.75;1.00;;;17.80;53.90;;;;;;10200147;29;20234;-59
2021/01/06 05:49:43;;;;;;;1.27;1.17;;;17.80;53.90;;;;;;10201496;29;20043;-59
2021/01/06 05:54:48;;;;;;;1.37;1.23;;;17.80;53.90;;;;;;10201644;29;20051;-60
2021/01/06 06:00:15;;;;;;;2.45;0.90;;;17.80;53.80;;;;;;10202907;29;20634;-59
2021/01/06 06:05:33;;;;;;;0.93;0.80;;;17.80;53.80;;;;;;10203836;29;20138;-60
2021/01/06 06:10:59;;;;;;;1.45;1.00;;;17.90;53.80;;;;;;10204520;29;20543;-60
2021/01/06 06:16:27;;;;;;;0.90;0.80;;;17.90;53.70;;;;;;10211570;29;20052;-60
2021/01/06 06:21:36;;;;;;;3.40;0.80;;;17.90;53.70;;;;;;10208572;29;20079;-60
2021/01/06 06:26:47;;;;;;;1.00;0.90;;;17.90;53.70;;;;;;10204875;29;20469;-60
2021/01/06 06:31:52;;;;;;;1.45;0.90;;;17.90;53.70;;;;;;10209143;29;20580;-59
2021/01/06 06:37:06;;;;;;;1.10;0.90;;;17.90;53.70;;;;;;10210464;29;20138;-61
2021/01/06 06:42:17;;;;;;;1.52;0.82;;;17.90;53.70;;;;;;10208877;29;20568;-60
2021/01/06 06:47:24;;;;;;;2.13;0.88;;;17.90;53.70;;;;;;10205365;29;20058;-60
2021/01/06 06:52:30;;;;;;;2.15;0.70;;;17.90;53.70;;;;;;10208079;29;20105;-60
2021/01/06 06:57:39;;;;;;;1.00;0.82;;;17.90;53.70;;;;;;10207430;29;20132;-60
2021/01/06 07:02:46;;;;;;;0.95;0.75;;;18.00;53.80;;;;;;10203555;29;20062;-60
2021/01/06 07:07:53;;;;;;;1.10;0.88;;;18.00;53.80;;;;;;10205758;29;20408;-60
2021/01/06 07:13:01;;;;;;;1.63;1.02;;;18.00;53.80;;;;;;10201136;29;20114;-60
2021/01/06 07:18:32;;;;;;;0.93;0.73;;;18.00;53.80;;;;;;10205599;29;20075;-60
2021/01/06 07:23:37;;;;;;;4.70;0.82;;;18.00;53.80;;;;;;10203974;29;20061;-60
2021/01/06 07:28:39;;;;;;;3.08;0.88;;;18.00;53.80;;;;;;10204111;29;20043;-59
2021/01/06 07:33:43;;;;;;;2.80;0.77;;;18.00;53.80;;;;;;10204756;29;20062;-60
2021/01/06 07:38:47;;;;;;;1.65;0.93;;;18.00;53.80;;;;;;10203992;29;20051;-60
2021/01/06 07:44:03;;;;;;;3.05;0.90;;;18.00;53.80;;;;;;10200545;29;20574;-60
2021/01/06 07:49:33;;;;;;;2.35;0.70;;;18.00;53.80;;;;;;10200510;29;20044;-60
2021/01/06 07:54:41;;;;;;;5.43;0.80;;;18.00;53.80;;;;;;10206529;29;20054;-60
2021/01/06 07:59:52;;;;;;;1.23;0.70;;;18.00;53.80;;;;;;10203609;29;20046;-60
2021/01/06 08:05:20;;;;;;;3.30;1.20;;;18.00;53.80;;;;;;10203872;29;20051;-60
2021/01/06 08:10:27;;;;;;;2.03;1.20;;;18.00;53.80;;;;;;10206961;29;20058;-60
2021/01/06 08:15:30;;;;;;;2.83;1.35;;;18.00;53.80;;;;;;10205423;29;20184;-60
2021/01/06 08:20:36;;;;;;;3.20;1.80;;;18.00;53.80;;;;;;10206553;29;20174;-60
2021/01/06 08:25:39;;;;;;;3.13;1.48;;;17.90;53.70;;;;;;10205111;29;20055;-60
2021/01/06 08:30:40;;;;;;;2.45;1.88;;;17.90;53.70;;;;;;10206178;29;20139;-60
2021/01/06 08:35:44;;;;;;;2.65;1.60;;;17.90;53.70;;;;;;10204557;29;20060;-60
2021/01/06 08:40:46;;;;;;;11.77;2.33;;;17.90;53.70;;;;;;10203983;29;20047;-60
2021/01/06 08:45:54;;;;;;;5.50;1.83;;;17.90;53.70;;;;;;10204085;29;20665;-60
2021/01/06 08:51:06;;;;;;;3.97;1.73;;;17.90;53.60;;;;;;10203888;29;20047;-60
2021/01/06 08:56:10;;;;;;;4.97;1.37;;;17.90;53.60;;;;;;10204584;29;20062;-61
2021/01/06 09:01:26;;;;;;;3.08;1.40;;;18.00;53.60;;;;;;10201678;29;20051;-60
2021/01/06 09:06:29;;;;;;;3.00;1.48;;;18.00;53.50;;;;;;10206279;29;20142;-61
2021/01/06 09:11:43;;;;;;;3.58;1.30;;;18.00;53.50;;;;;;10202966;29;20051;-61
2021/01/06 09:16:48;;;;;;;6.22;1.20;;;18.00;53.50;;;;;;10204951;29;20058;-60
2021/01/06 09:21:51;;;;;;;3.95;1.30;;;18.00;53.50;;;;;;10203495;29;20130;-61
2021/01/06 09:26:55;;;;;;;3.20;1.20;;;18.00;53.40;;;;;;10204282;29;20063;-60
2021/01/06 09:31:58;;;;;;;1.50;1.10;;;18.00;53.40;;;;;;10202210;29;20127;-60
2021/01/06 09:37:02;;;;;;;2.45;1.20;;;18.00;53.40;;;;;;10205968;29;20198;-60
2021/01/06 09:42:05;;;;;;;7.65;1.27;;;18.00;53.30;;;;;;10202653;29;20146;-60
2021/01/06 09:47:13;;;;;;;3.97;0.90;;;18.10;53.30;;;;;;10208224;29;20046;-60
2021/01/06 09:52:18;;;;;;;2.03;0.90;;;18.10;53.20;;;;;;10196923;29;20047;-60
2021/01/06 09:57:22;;;;;;;3.92;0.82;;;18.10;53.20;;;;;;10212206;29;20126;-60
2021/01/06 10:02:27;;;;;;;4.22;1.25;;;18.10;53.20;;;;;;10211357;29;20051;-60
2021/01/06 10:07:43;;;;;;;7.28;1.00;;;18.10;53.10;;;;;;10210426;29;20843;-60
2021/01/06 10:12:55;;;;;;;2.03;0.80;;;18.10;53.10;;;;;;10212339;29;20126;-60
2021/01/06 10:18:12;;;;;;;1.67;0.75;;;18.10;53.10;;;;;;10208668;29;20046;-60
2021/01/06 10:23:29;;;;;;;2.97;0.90;;;18.10;53.10;;;;;;10211765;29;20058;-64
2021/01/06 10:28:35;;;;;;;1.63;0.75;;;18.10;53.10;;;;;;10208442;29;20048;-60
2021/01/06 10:34:02;;;;;;;1.50;0.75;;;18.10;53.00;;;;;;10212556;29;20106;-60
2021/01/06 10:39:04;;;;;;;2.10;0.65;;;18.10;52.90;;;;;;10209080;29;20122;-60
2021/01/06 10:44:30;;;;;;;1.70;0.70;;;18.10;52.90;;;;;;10211258;29;20051;-60
2021/01/06 10:49:58;;;;;;;1.52;0.93;;;18.10;52.90;;;;;;10210137;29;20499;-60
2021/01/06 10:55:32;;;;;;;1.77;0.70;;;18.10;52.80;;;;;;10209130;29;20047;-60
2021/01/06 11:00:50;;;;;;;1.58;1.10;;;18.10;52.70;;;;;;10207208;29;20058;-60
2021/01/06 11:06:05;;;;;;;1.95;0.60;;;18.20;52.70;;;;;;10208487;29;20064;-60
2021/01/06 11:11:28;;;;;;;1.13;0.80;;;18.10;52.60;;;;;;10208769;29;20079;-60
2021/01/06 11:16:37;;;;;;;4.75;0.82;;;18.10;52.60;;;;;;10205439;29;20055;-61
2021/01/06 11:22:03;;;;;;;2.42;1.10;;;18.20;52.60;;;;;;10207606;29;20452;-60
2021/01/06 11:27:04;;;;;;;1.08;0.85;;;18.10;52.50;;;;;;10205570;29;20050;-56
2021/01/06 11:32:37;;;;;;;2.15;1.08;;;18.10;52.50;;;;;;10203334;29;20058;-60
2021/01/06 11:37:40;;;;;;;1.48;0.85;;;18.10;52.50;;;;;;10204350;29;20047;-61
2021/01/06 11:42:52;;;;;;;1.85;1.00;;;18.10;52.50;;;;;;10207340;29;20051;-61
2021/01/06 11:47:57;;;;;;;2.13;0.70;;;18.10;52.50;;;;;;10203600;29;20488;-60
2021/01/06 11:53:16;;;;;;;3.10;1.33;;;18.10;52.50;;;;;;10205667;29;20487;-61
2021/01/06 11:58:32;;;;;;;6.03;0.88;;;18.10;52.50;;;;;;10203317;29;20139;-60
2021/01/06 12:03:44;;;;;;;1.40;0.70;;;18.10;52.50;;;;;;10203669;29;20056;-60
2021/01/06 12:08:59;;;;;;;0.88;0.77;;;18.20;52.50;;;;;;10202369;29;20047;-60
2021/01/06 12:14:21;;;;;;;2.08;0.90;;;18.20;52.50;;;;;;10203416;29;20055;-61
2021/01/06 12:19:30;;;;;;;3.33;1.10;;;18.20;52.50;;;;;;10202658;29;20083;-59
2021/01/06 12:24:43;;;;;;;3.22;1.10;;;18.20;52.50;;;;;;10203820;29;20107;-60
2021/01/06 12:29:47;;;;;;;;;;;18.20;52.50;;;;;;10202895;29;20090;-60
2021/01/06 12:34:53;;;;;;;3.63;1.13;;;18.30;52.70;;;;;;10202663;29;19933;-60
2021/01/06 12:40:23;;;;;;;2.47;1.30;;;18.30;52.70;;;;;;10202165;29;20039;-60
2021/01/06 12:45:29;;;;;;;5.20;0.88;;;18.30;52.70;;;;;;10156223;29;20094;-60
2021/01/06 12:50:37;;;;;;;3.75;0.80;;;18.30;52.70;;;;;;10200997;29;20081;-60
2021/01/06 12:55:51;;;;;;;1.92;0.80;;;18.30;52.70;;;;;;10201391;29;20155;-60
2021/01/06 13:01:06;;;;;;;4.90;1.25;;;18.40;52.80;;;;;;10198756;29;20401;-60
2021/01/06 13:06:18;;;;;;;3.03;1.85;;;18.40;52.90;;;;;;10201950;29;20059;-60
2021/01/06 13:11:25;;;;;;;2.93;1.20;;;18.40;52.90;;;;;;10201535;29;20039;-60
2021/01/06 13:16:31;;;;;;;7.63;1.38;;;18.40;52.90;;;;;;10203045;29;20824;-62
2021/01/06 13:21:35;;;;;;;2.03;1.23;;;18.40;52.80;;;;;;10200135;29;20134;-62
2021/01/06 13:26:44;;;;;;;2.40;1.35;;;18.40;52.90;;;;;;10201567;29;20154;-62
2021/01/06 13:32:04;;;;;;;6.05;1.48;;;18.40;52.80;;;;;;10200995;29;20048;-62
2021/01/06 13:37:30;;;;;;;5.97;1.48;;;18.40;52.80;;;;;;10205766;29;20046;-62
2021/01/06 13:42:34;;;;;;;2.40;1.40;;;18.40;52.80;;;;;;10200996;29;20047;-62
2021/01/06 13:47:40;;;;;;;3.17;1.20;;;18.40;52.90;;;;;;10202019;29;20497;-62
2021/01/06 13:52:49;;;;;;;4.72;1.50;;;18.40;52.90;;;;;;10202595;29;20472;-58
2021/01/06 13:58:00;;;;;;;4.57;1.33;;;18.50;53.00;;;;;;10204448;29;20044;-64
2021/01/06 14:03:24;;;;;;;3.55;1.38;;;18.40;52.90;;;;;;10203890;29;20484;-61
2021/01/06 14:08:30;;;;;;;2.85;1.23;;;18.40;52.90;;;;;;10203894;29;20054;-60
2021/01/06 14:13:52;;;;;;;2.05;1.10;;;18.40;52.90;;;;;;10203447;29;20056;-62
2021/01/06 14:19:18;;;;;;;6.30;1.30;;;18.40;53.00;;;;;;10205350;29;20130;-60
2021/01/06 14:24:23;;;;;;;5.13;2.00;;;18.40;53.10;;;;;;10203593;29;20048;-59
2021/01/06 14:29:41;;;;;;;3.00;1.83;;;18.40;53.10;;;;;;10201556;29;20048;-61
2021/01/06 14:34:54;;;;;;;5.30;2.00;;;18.40;53.10;;;;;;10208811;29;20102;-60
2021/01/06 14:40:08;;;;;;;5.63;2.03;;;18.40;53.10;;;;;;10209793;29;20135;-61
2021/01/06 14:45:27;;;;;;;5.13;2.33;;;18.40;53.10;;;;;;10211238;29;20146;-62
2021/01/06 14:51:00;;;;;;;4.88;2.47;;;18.40;53.20;;;;;;10208412;29;20507;-61
2021/01/06 14:56:15;;;;;;;6.30;2.72;;;18.40;53.20;;;;;;10133363;29;20138;-60
2021/01/06 15:01:21;;;;;;;7.38;2.47;;;18.40;53.20;;;;;;10205795;29;20059;-58
2021/01/06 15:06:27;;;;;;;4.13;2.60;;;18.40;53.20;;;;;;10209316;29;20072;-61
2021/01/06 15:11:33;;;;;;;5.10;2.20;;;18.40;53.20;;;;;;10207524;29;20055;-60
2021/01/06 15:16:38;;;;;;;5.28;2.30;;;18.40;53.20;;;;;;10209913;29;20051;-61
2021/01/06 15:21:42;;;;;;;3.60;2.28;;;18.30;53.10;;;;;;10208470;29;20051;-60
2021/01/06 15:26:49;;;;;;;4.10;2.42;;;18.30;53.10;;;;;;10206853;29;20054;-61
2021/01/06 15:32:07;;;;;;;4.93;2.05;;;18.30;53.00;;;;;;10206467;29;20075;-60
2021/01/06 15:37:13;;;;;;;4.15;1.90;;;18.30;52.90;;;;;;10208204;29;20091;-60
2021/01/06 15:47:30;;;;;;;2.47;1.48;;;18.30;52.40;;;;;;10196143;23;20319;-62
2021/01/06 15:52:34;;;;;;;4.32;1.40;;;18.30;52.90;;;;;;10205196;29;20158;-61
2021/01/06 15:57:36;;;;;;;4.82;2.08;;;18.30;53.00;;;;;;10202979;29;20376;-61
2021/01/06 16:02:39;;;;;;;4.78;2.05;;;18.30;52.70;;;;;;10203536;29;20111;-60
2021/01/06 16:07:46;;;;;;;4.55;1.85;;;18.30;52.60;;;;;;10201572;29;20048;-60
2021/01/06 16:12:48;;;;;;;5.78;1.67;;;18.30;52.40;;;;;;10204243;29;20079;-53
2021/01/06 16:17:53;;;;;;;7.85;3.17;;;18.30;52.30;;;;;;10203471;29;20763;-63
2021/01/06 16:22:55;;;;;;;7.70;3.10;;;18.30;52.20;;;;;;10204423;29;20114;-60
2021/01/06 16:27:58;;;;;;;6.43;2.20;;;18.30;52.20;;;;;;10204998;29;20071;-61
2021/01/06 16:33:12;;;;;;;6.55;2.35;;;18.30;52.20;;;;;;10204440;29;20484;-60
2021/01/06 16:38:20;;;;;;;6.47;2.90;;;18.30;52.20;;;;;;10204335;29;20155;-60
2021/01/06 16:43:24;;;;;;;7.90;2.65;;;18.30;52.10;;;;;;10203243;29;20150;-60
2021/01/06 16:48:26;;;;;;;6.40;2.22;;;18.30;52.20;;;;;;10202024;29;20138;-59
2021/01/06 16:53:30;;;;;;;4.82;2.60;;;18.30;52.20;;;;;;10199550;29;20062;-60
2021/01/06 16:58:32;;;;;;;10.27;2.78;;;18.30;52.20;;;;;;10203288;28;20515;-60
2021/01/06 17:03:39;;;;;;;4.10;2.30;;;18.30;52.10;;;;;;10192688;29;20162;-60
2021/01/06 17:08:40;;;;;;;3.65;1.95;;;18.30;52.10;;;;;;10193536;29;20085;-59
2021/01/06 17:13:52;;;;;;;5.97;2.20;;;18.40;52.10;;;;;;10196721;29;20130;-59
2021/01/06 17:18:59;;;;;;;3.85;1.90;;;18.40;52.10;;;;;;10199934;29;20051;-59
2021/01/06 17:24:04;;;;;;;7.13;1.90;;;18.40;52.10;;;;;;10202982;29;20056;-59
2021/01/06 17:29:08;;;;;;;5.78;1.90;;;18.40;52.20;;;;;;10202348;29;20056;-59
2021/01/06 17:34:19;;;;;;;4.38;1.80;;;18.40;52.10;;;;;;10202621;29;20059;-59
2021/01/06 17:39:21;;;;;;;5.05;1.50;;;18.40;52.00;;;;;;10201490;29;20150;-59
2021/01/06 17:44:25;;;;;;;4.10;1.50;;;18.40;52.00;;;;;;10201375;29;20142;-59
2021/01/06 17:49:28;;;;;;;3.58;1.55;;;18.40;51.90;;;;;;10200946;29;20062;-59
2021/01/06 17:54:30;;;;;;;5.45;2.25;;;18.40;51.90;;;;;;10200752;29;20056;-59
2021/01/06 17:59:31;;;;;;;2.42;1.30;;;18.50;51.80;;;;;;10203403;29;20096;-60
2021/01/06 18:04:33;;;;;;;4.85;1.98;;;18.40;51.70;;;;;;10201732;29;20054;-59
2021/01/06 18:09:35;;;;;;;2.90;1.58;;;18.40;51.60;;;;;;10205538;29;20059;-58
2021/01/06 18:14:36;;;;;;;3.33;1.85;;;18.40;51.50;;;;;;10206641;29;20399;-59
2021/01/06 18:19:38;;;;;;;4.72;2.30;;;18.40;51.40;;;;;;10210000;29;20118;-59
2021/01/06 18:24:40;;;;;;;13.17;5.37;;;18.40;51.20;;;;;;10208325;29;20047;-57
2021/01/06 18:29:43;;;;;;;13.25;7.45;;;18.40;51.20;;;;;;10209392;29;20051;-60
2021/01/06 18:34:47;;;;;;;14.10;8.20;;;18.40;51.10;;;;;;10211143;29;20048;-61
2021/01/06 18:40:07;;;;;;;25.60;9.95;;;18.40;51.20;;;;;;10207394;29;20106;-58
2021/01/06 18:45:11;;;;;;;19.92;9.95;;;18.30;51.20;;;;;;10204577;29;20060;-63
2021/01/06 18:50:26;;;;;;;17.98;9.68;;;18.30;51.30;;;;;;10202191;29;20094;-63
2021/01/06 18:55:30;;;;;;;21.17;10.55;;;18.30;51.50;;;;;;10208236;29;20445;-61
2021/01/06 19:00:31;;;;;;;20.13;10.50;;;18.20;51.50;;;;;;10208658;29;20058;-56
2021/01/06 19:05:43;;;;;;;20.05;10.35;;;18.20;51.60;;;;;;10205415;29;20059;-60
2021/01/06 19:10:46;;;;;;;18.08;8.85;;;18.20;51.70;;;;;;10201898;29;20086;-56
2021/01/06 19:15:48;;;;;;;19.20;9.13;;;18.20;51.70;;;;;;10205635;29;20477;-61
2021/01/06 19:20:50;;;;;;;13.07;7.18;;;18.20;51.80;;;;;;10201585;29;20074;-58
2021/01/06 19:25:53;;;;;;;11.70;6.55;;;18.20;51.80;;;;;;10208832;29;20058;-63
2021/01/06 19:30:56;;;;;;;9.93;5.82;;;18.20;51.80;;;;;;10207000;29;20135;-62
2021/01/06 19:36:05;;;;;;;9.98;4.47;;;18.20;51.90;;;;;;10207534;29;20143;-61
2021/01/06 19:41:07;;;;;;;9.15;4.85;;;18.20;52.00;;;;;;10206226;29;20087;-60
2021/01/06 19:46:09;;;;;;;13.38;6.63;;;18.20;51.90;;;;;;10200744;29;20055;-61
2021/01/06 19:51:11;;;;;;;11.90;6.55;;;18.30;52.10;;;;;;10201761;29;20069;-60
2021/01/06 19:56:15;;;;;;;16.48;7.75;;;18.20;52.00;;;;;;10206677;29;20054;-60
2021/01/06 20:01:21;;;;;;;14.68;6.93;;;18.20;52.10;;;;;;10205925;29;21237;-61
2021/01/06 20:06:22;;;;;;;13.32;5.43;;;18.20;52.20;;;;;;10202427;29;20146;-60
2021/01/06 20:11:26;;;;;;;10.35;4.82;;;18.20;52.30;;;;;;10205143;29;20101;-62
2021/01/06 20:16:28;;;;;;;9.02;4.80;;;18.20;52.30;;;;;;10204507;29;20048;-61
2021/01/06 20:21:32;;;;;;;10.10;4.28;;;18.30;52.40;;;;;;10199087;29;20560;-61
2021/01/06 20:26:37;;;;;;;7.55;3.80;;;18.30;52.40;;;;;;10205060;29;20526;-61
2021/01/06 20:31:38;;;;;;;6.45;3.70;;;18.30;52.40;;;;;;10205546;29;20051;-58
2021/01/06 20:36:39;;;;;;;7.28;3.58;;;18.30;52.50;;;;;;10205388;29;20046;-61
2021/01/06 20:41:41;;;;;;;7.25;3.80;;;18.30;52.50;;;;;;10203850;29;20467;-60
2021/01/06 20:46:43;;;;;;;7.30;4.05;;;18.30;52.50;;;;;;10197928;29;20058;-61
2021/01/06 20:51:44;;;;;;;7.90;3.60;;;18.30;52.50;;;;;;10195199;29;20051;-61
2021/01/06 20:56:51;;;;;;;7.28;3.72;;;18.30;52.50;;;;;;10192869;29;20047;-61
2021/01/06 21:01:58;;;;;;;7.90;4.35;;;18.30;52.50;;;;;;10201528;29;20392;-61
2021/01/06 21:06:59;;;;;;;10.55;3.80;;;18.40;52.50;;;;;;10199407;29;20087;-61
2021/01/06 21:12:02;;;;;;;9.93;4.43;;;18.40;52.50;;;;;;10201999;29;20052;-61
2021/01/06 21:17:05;;;;;;;;;;;18.30;52.50;;;;;;10200803;29;20091;-61
2021/01/06 21:22:06;;;;;;;;;;;18.30;52.50;;;;;;10191128;29;19935;-61
2021/01/06 21:27:08;;;;;;;9.88;4.57;;;18.30;52.50;;;;;;10198588;29;19930;-61
2021/01/06 21:32:10;;;;;;;7.32;4.32;;;18.40;52.60;;;;;;10196461;29;20050;-61
2021/01/06 21:37:11;;;;;;;6.80;4.45;;;18.30;52.50;;;;;;10204282;29;20122;-61
2021/01/06 21:42:15;;;;;;;10.70;4.70;;;18.30;52.50;;;;;;10203077;29;20134;-60
2021/01/06 21:47:17;;;;;;;14.00;4.57;;;18.30;52.50;;;;;;10208183;29;20530;-59
2021/01/06 21:52:18;;;;;;;10.18;5.07;;;18.30;52.50;;;;;;10212558;29;20048;-60
2021/01/06 21:57:21;;;;;;;10.25;5.05;;;18.30;52.50;;;;;;10212194;29;20051;-61
2021/01/06 22:02:23;;;;;;;11.93;5.32;;;18.30;52.40;;;;;;10212290;29;20048;-60
2021/01/06 22:07:24;;;;;;;10.35;5.35;;;18.30;52.40;;;;;;10209758;29;20051;-60
2021/01/06 22:12:26;;;;;;;11.20;5.03;;;18.30;52.40;;;;;;10211115;29;20071;-61
2021/01/06 22:17:31;;;;;;;10.15;4.85;;;18.30;52.40;;;;;;10209848;29;20053;-61
2021/01/06 22:22:34;;;;;;;9.35;4.85;;;18.30;52.40;;;;;;10209889;29;20059;-60
2021/01/06 22:27:36;;;;;;;7.70;5.15;;;18.30;52.30;;;;;;10210103;29;20048;-61
2021/01/06 22:32:37;;;;;;;9.18;4.43;;;18.30;52.30;;;;;;10208726;29;20085;-57
2021/01/06 22:37:39;;;;;;;8.68;4.97;;;18.30;52.30;;;;;;10208358;29;20048;-62
2021/01/06 22:42:41;;;;;;;9.67;4.70;;;18.30;52.30;;;;;;10205379;29;20047;-62
2021/01/06 22:47:43;;;;;;;9.75;4.60;;;18.20;52.30;;;;;;10193039;29;20855;-62
2021/01/06 22:52:44;;;;;;;8.88;4.95;;;18.20;52.40;;;;;;10207679;29;20483;-62
2021/01/06 22:57:46;;;;;;;10.52;4.90;;;18.10;52.30;;;;;;10208091;29;20056;-61
2021/01/06 23:02:48;;;;;;;9.13;4.55;;;18.20;52.40;;;;;;10210001;29;20078;-61
2021/01/06 23:07:49;;;;;;;10.40;4.78;;;18.10;52.40;;;;;;10207093;29;20048;-62
2021/01/06 23:12:51;;;;;;;8.60;4.53;;;18.10;52.40;;;;;;10208817;29;20136;-62
2021/01/06 23:17:53;;;;;;;7.85;4.47;;;18.10;52.40;;;;;;10208881;29;20098;-61
2021/01/06 23:22:54;;;;;;;8.65;5.00;;;18.10;52.40;;;;;;10208805;29;20135;-61
2021/01/06 23:27:56;;;;;;;7.97;4.47;;;18.10;52.50;;;;;;10205186;29;20061;-62
2021/01/06 23:32:57;;;;;;;9.20;4.60;;;18.10;52.40;;;;;;10204430;29;20377;-62
2021/01/06 23:37:59;;;;;;;10.07;4.57;;;18.10;52.40;;;;;;10202278;29;20060;-61
2021/01/06 23:43:01;;;;;;;7.90;4.50;;;18.10;52.40;;;;;;10204640;29;20456;-62
2021/01/06 23:48:03;;;;;;;9.18;4.50;;;18.10;52.40;;;;;;10205559;29;20473;-61
2021/01/06 23:53:04;;;;;;;8.83;4.83;;;18.10;52.40;;;;;;10206927;29;20048;-62
2021/01/06 23:58:06;;;;;;;7.57;4.65;;;18.00;52.40;;;;;;10205594;29;20146;-61
